METAR Data
IDs: Format: Raw Decoded Include TAF

Data at: 0154 UTC 20 Jan 2022

KMYL 200151Z AUTO 08003KT 10SM CLR M04/M07 A3031 RMK AO2 SLP310 T10441072

KMYL 192320Z 2000/2024 VRB03KT P6SM SCT005
  FM200800 VRB03KT P6SM VCFG OVC006
  FM201500 VRB04KT 2SM -SN BR OVC003
  FM202200 VRB04KT 4SM -SN BR OVC005